Time;durP1;ratioP1;P1;durP2;ratioP2;P2;SDS_P1;SDS_P2;PMS_P1;PMS_P2;Temp;Humidity;BMP_temperature;BMP_pressure;BME280_temperature;BME280_humidity;BME280_pressure;Samples;Min_cycle;Max_cycle;Signal;HPM_P1;HPM_P2
2021/06/05 00:00:56;;;;;;;1.05;0.93;;;22.60;52.50;;;;;;5054254;28;20045;-49
2021/06/05 00:03:24;;;;;;;1.75;1.38;;;22.60;52.50;;;;;;5055935;28;20528;-50
2021/06/05 00:05:56;;;;;;;1.90;1.40;;;22.60;53.10;;;;;;5053399;28;20045;-49
2021/06/05 00:08:26;;;;;;;1.38;1.27;;;22.60;52.50;;;;;;5046666;28;20506;-50
2021/06/05 00:10:57;;;;;;;1.50;1.27;;;22.60;52.50;;;;;;5039313;28;20485;-47
2021/06/05 00:13:37;;;;;;;1.65;1.30;;;22.60;52.50;;;;;;5055142;28;20083;-49
2021/06/05 00:16:07;;;;;;;1.20;1.10;;;22.60;52.50;;;;;;5037503;28;20041;-50
2021/06/05 00:18:35;;;;;;;1.77;1.45;;;22.60;52.50;;;;;;5038025;28;20052;-50
2021/06/05 00:21:05;;;;;;;1.50;1.40;;;22.60;52.60;;;;;;5036543;28;20045;-53
2021/06/05 00:23:32;;;;;;;1.95;1.52;;;22.60;52.60;;;;;;5053883;28;20049;-50
2021/06/05 00:26:00;;;;;;;1.67;1.55;;;22.60;52.60;;;;;;5053507;28;20122;-50
2021/06/05 00:28:28;;;;;;;1.85;1.30;;;22.60;52.60;;;;;;5036819;28;20506;-52
2021/06/05 00:30:55;;;;;;;1.50;1.33;;;22.60;52.60;;;;;;5036066;28;20042;-53
2021/06/05 00:33:23;;;;;;;1.52;1.40;;;22.60;52.60;;;;;;5054110;28;20057;-55
2021/06/05 00:35:51;;;;;;;1.40;1.30;;;22.60;53.20;;;;;;5053362;28;20403;-53
2021/06/05 00:38:20;;;;;;;1.45;1.23;;;22.50;52.50;;;;;;5054618;28;20068;-48
2021/06/05 00:40:50;;;;;;;1.45;1.35;;;22.50;52.50;;;;;;5041151;28;20046;-49
2021/06/05 00:43:21;;;;;;;1.38;1.27;;;22.50;52.50;;;;;;5051606;28;20588;-51
2021/06/05 00:45:48;;;;;;;1.45;1.30;;;22.50;52.60;;;;;;5041926;28;20103;-47
2021/06/05 00:48:18;;;;;;;1.40;1.30;;;22.50;52.60;;;;;;5048071;28;20060;-49
2021/06/05 00:50:47;;;;;;;2.15;1.40;;;22.60;52.70;;;;;;5054113;28;20049;-49
2021/06/05 00:53:16;;;;;;;1.40;1.30;;;22.50;52.60;;;;;;5052777;28;20053;-48
2021/06/05 00:55:45;;;;;;;1.92;1.60;;;22.60;52.70;;;;;;5052970;28;20048;-48
2021/06/05 00:58:14;;;;;;;1.35;1.25;;;22.50;52.60;;;;;;5052599;28;20057;-49
2021/06/05 01:00:48;;;;;;;1.63;1.40;;;22.60;52.70;;;;;;5046154;28;20470;-50
2021/06/05 01:03:16;;;;;;;1.92;1.48;;;22.50;52.70;;;;;;5045734;28;20451;-50
2021/06/05 01:05:47;;;;;;;1.90;1.50;;;22.50;52.60;;;;;;5052342;28;20049;-51
2021/06/05 01:08:23;;;;;;;1.38;1.27;;;22.50;52.60;;;;;;5053983;28;20471;-51
2021/06/05 01:10:57;;;;;;;1.33;1.23;;;22.60;52.70;;;;;;5052537;28;20059;-49
2021/06/05 01:13:31;;;;;;;;;;;22.50;52.70;;;;;;5053482;28;20345;-49
2021/06/05 01:16:02;;;;;;;1.27;1.17;;;22.50;52.70;;;;;;5047860;28;19924;-50
2021/06/05 01:18:53;;;;;;;1.30;1.20;;;22.50;52.70;;;;;;5059486;28;20124;-50
2021/06/05 01:21:42;;;;;;;1.40;1.30;;;22.50;52.70;;;;;;5058596;28;20156;-52
2021/06/05 01:24:25;;;;;;;1.63;1.50;;;22.50;52.70;;;;;;5037372;28;20052;-49
2021/06/05 01:27:21;;;;;;;1.70;1.35;;;22.50;52.70;;;;;;5037055;28;20099;-50
2021/06/05 01:29:53;;;;;;;1.95;1.35;;;22.50;52.70;;;;;;5049797;28;20515;-49
2021/06/05 01:32:21;;;;;;;1.73;1.52;;;22.50;52.70;;;;;;5052447;28;20103;-50
2021/06/05 01:34:52;;;;;;;1.95;1.27;;;22.50;52.70;;;;;;5054272;28;20493;-51
2021/06/05 01:37:20;;;;;;;2.08;1.60;;;22.50;52.70;;;;;;5054316;28;20085;-46
2021/06/05 01:39:50;;;;;;;1.40;1.20;;;22.50;52.70;;;;;;5051558;28;20412;-52
2021/06/05 01:42:28;;;;;;;3.13;1.50;;;22.50;52.80;;;;;;5054362;28;20106;-48
2021/06/05 01:44:58;;;;;;;1.33;1.23;;;22.50;52.80;;;;;;5051771;28;20053;-49
2021/06/05 01:47:26;;;;;;;1.48;1.30;;;22.50;52.80;;;;;;5053080;28;20103;-49
2021/06/05 01:49:54;;;;;;;1.83;1.50;;;22.50;52.80;;;;;;5051828;28;20103;-49
2021/06/05 01:52:27;;;;;;;1.55;1.45;;;22.50;52.80;;;;;;5051806;28;20103;-51
2021/06/05 01:55:14;;;;;;;3.22;1.27;;;22.50;52.80;;;;;;5044358;28;20501;-53
2021/06/05 01:57:56;;;;;;;1.50;1.33;;;22.50;52.80;;;;;;5036796;28;20049;-52
2021/06/05 02:00:29;;;;;;;2.33;1.40;;;22.50;52.80;;;;;;5047637;28;20476;-48
2021/06/05 02:02:58;;;;;;;1.50;1.33;;;22.50;52.80;;;;;;5053044;28;20100;-49
2021/06/05 02:05:28;;;;;;;1.30;1.20;;;22.50;52.80;;;;;;5039817;28;20056;-50
2021/06/05 02:07:56;;;;;;;1.63;1.30;;;22.50;52.90;;;;;;5048603;28;20119;-49
2021/06/05 02:10:27;;;;;;;1.58;1.40;;;22.50;52.90;;;;;;5053691;28;20048;-49
2021/06/05 02:12:56;;;;;;;1.73;1.50;;;22.50;52.90;;;;;;5041931;28;20468;-49
2021/06/05 02:15:34;;;;;;;1.70;1.40;;;22.50;52.90;;;;;;5051551;28;20450;-51
2021/06/05 02:18:06;;;;;;;1.30;1.20;;;22.50;52.90;;;;;;5046856;28;20045;-48
2021/06/05 02:20:42;;;;;;;1.30;1.20;;;22.50;52.90;;;;;;5053731;28;20493;-50
2021/06/05 02:23:15;;;;;;;1.70;1.30;;;22.50;52.90;;;;;;5067763;28;20560;-51
2021/06/05 02:25:42;;;;;;;1.40;1.30;;;22.50;52.90;;;;;;5052671;28;20199;-54
2021/06/05 02:28:11;;;;;;;1.30;1.10;;;22.50;52.90;;;;;;5052391;28;20053;-53
2021/06/05 02:30:39;;;;;;;1.50;1.38;;;22.50;52.90;;;;;;5053603;28;20056;-52
2021/06/05 02:33:07;;;;;;;1.63;1.30;;;22.50;52.90;;;;;;5053336;28;20128;-53
2021/06/05 02:35:41;;;;;;;1.85;1.50;;;22.50;52.90;;;;;;5053612;28;20049;-51
2021/06/05 02:38:11;;;;;;;1.40;1.30;;;22.50;52.90;;;;;;5051097;28;20488;-52
2021/06/05 02:40:39;;;;;;;1.20;1.10;;;22.50;52.90;;;;;;5051604;28;20455;-54
2021/06/05 02:43:13;;;;;;;1.45;1.27;;;22.50;53.00;;;;;;5051288;28;20040;-50
2021/06/05 02:46:05;;;;;;;1.40;1.30;;;22.50;53.00;;;;;;5047515;28;20440;-50
2021/06/05 02:48:55;;;;;;;1.35;1.25;;;22.50;53.00;;;;;;5044019;28;20041;-55
2021/06/05 02:51:27;;;;;;;1.45;1.30;;;22.50;53.00;;;;;;5042661;28;20046;-50
2021/06/05 02:53:55;;;;;;;1.52;1.30;;;22.50;53.00;;;;;;5035454;28;20050;-50
2021/06/05 02:56:23;;;;;;;1.83;1.48;;;22.50;53.00;;;;;;5045431;28;20094;-50
2021/06/05 02:58:51;;;;;;;1.58;1.30;;;22.50;53.00;;;;;;5043581;28;20078;-50
2021/06/05 03:01:18;;;;;;;1.98;1.40;;;22.40;52.90;;;;;;5035846;28;20045;-55
2021/06/05 03:03:46;;;;;;;1.15;1.05;;;22.50;53.00;;;;;;5041609;28;20045;-50
2021/06/05 03:06:14;;;;;;;1.85;1.42;;;22.50;53.00;;;;;;5045707;28;20096;-53
2021/06/05 03:08:43;;;;;;;1.38;1.20;;;22.50;53.10;;;;;;5039576;28;20075;-48
2021/06/05 03:11:14;;;;;;;1.40;1.30;;;22.50;53.10;;;;;;5040109;28;20378;-52
2021/06/05 03:13:42;;;;;;;2.25;1.40;;;22.50;53.00;;;;;;5064694;28;20052;-51
2021/06/05 03:16:11;;;;;;;1.83;1.60;;;22.50;53.00;;;;;;5036554;28;20046;-48
2021/06/05 03:18:39;;;;;;;2.00;1.48;;;22.40;52.90;;;;;;5038166;28;20042;-53
2021/06/05 03:21:09;;;;;;;1.30;1.20;;;22.50;53.00;;;;;;5052763;28;20067;-50
2021/06/05 03:23:37;;;;;;;1.88;1.45;;;22.50;53.00;;;;;;5054477;28;20089;-53
2021/06/05 03:26:05;;;;;;;1.60;1.50;;;22.50;53.00;;;;;;5053047;28;20091;-51
2021/06/05 03:28:34;;;;;;;1.75;1.40;;;22.50;53.00;;;;;;5051503;28;20041;-49
2021/06/05 03:31:02;;;;;;;1.30;1.20;;;22.50;53.00;;;;;;5053022;28;20102;-49
2021/06/05 03:33:29;;;;;;;1.30;1.10;;;22.50;52.90;;;;;;5035174;28;20050;-50
2021/06/05 03:35:58;;;;;;;1.65;1.55;;;22.50;52.90;;;;;;5050710;28;20053;-48
2021/06/05 03:38:27;;;;;;;1.30;1.20;;;22.50;53.00;;;;;;5050047;28;20048;-51
2021/06/05 03:40:54;;;;;;;1.75;1.60;;;22.50;52.90;;;;;;5033924;28;20464;-51
2021/06/05 03:43:22;;;;;;;1.55;1.20;;;22.50;52.90;;;;;;5052216;28;20057;-50
2021/06/05 03:45:51;;;;;;;1.90;1.52;;;22.50;52.90;;;;;;5052750;28;20401;-51
2021/06/05 03:48:19;;;;;;;1.50;1.40;;;22.60;52.90;;;;;;5051824;28;20102;-50
2021/06/05 03:50:50;;;;;;;1.40;1.30;;;22.60;52.90;;;;;;5051785;28;20049;-52
2021/06/05 03:53:20;;;;;;;1.75;1.30;;;22.60;52.90;;;;;;5051449;28;20052;-51
2021/06/05 03:55:47;;;;;;;1.40;1.30;;;22.60;52.90;;;;;;5063320;28;20078;-51
2021/06/05 03:58:15;;;;;;;1.50;1.40;;;22.60;52.80;;;;;;5056272;28;20436;-49
2021/06/05 04:00:45;;;;;;;3.40;1.30;;;22.60;52.80;;;;;;5051816;28;20048;-49
2021/06/05 04:03:13;;;;;;;1.20;1.10;;;22.60;52.70;;;;;;5043977;28;20052;-50
2021/06/05 04:05:40;;;;;;;1.40;1.30;;;22.60;52.70;;;;;;5045671;28;20083;-48
2021/06/05 04:08:08;;;;;;;1.85;1.45;;;22.70;52.70;;;;;;5038829;28;20072;-52
2021/06/05 04:10:35;;;;;;;1.40;1.17;;;22.70;52.70;;;;;;5039630;28;20045;-49
2021/06/05 04:13:04;;;;;;;1.30;1.20;;;22.70;52.70;;;;;;5039562;28;20494;-48
2021/06/05 04:15:33;;;;;;;2.63;1.50;;;22.70;52.60;;;;;;5038345;28;20098;-49
2021/06/05 04:18:09;;;;;;;1.77;1.20;;;22.70;52.60;;;;;;5038612;28;20049;-48
2021/06/05 04:20:39;;;;;;;1.23;1.13;;;22.70;52.60;;;;;;5039760;28;20100;-50
2021/06/05 04:23:08;;;;;;;1.60;1.42;;;22.70;52.50;;;;;;5040714;28;20072;-52
2021/06/05 04:25:36;;;;;;;1.40;1.30;;;22.80;52.60;;;;;;5039329;28;20049;-51
2021/06/05 04:28:06;;;;;;;1.40;1.30;;;22.70;52.50;;;;;;5040461;28;20091;-50
2021/06/05 04:30:35;;;;;;;1.55;1.40;;;22.80;52.50;;;;;;5053694;28;20102;-47
2021/06/05 04:33:03;;;;;;;1.40;1.30;;;22.80;52.40;;;;;;5055812;28;20094;-51
2021/06/05 04:35:30;;;;;;;1.58;1.25;;;22.80;52.40;;;;;;5057316;28;20097;-49
2021/06/05 04:37:58;;;;;;;1.42;1.33;;;22.80;52.30;;;;;;5070372;28;20062;-49
2021/06/05 04:40:26;;;;;;;1.60;1.42;;;22.80;52.30;;;;;;5053134;28;20389;-50
2021/06/05 04:42:54;;;;;;;1.50;1.30;;;22.80;52.30;;;;;;5054673;28;20095;-49
2021/06/05 04:45:23;;;;;;;1.40;1.15;;;22.80;52.30;;;;;;5035272;28;20056;-49
2021/06/05 04:47:50;;;;;;;1.52;1.42;;;22.90;52.30;;;;;;5054557;28;20045;-50
2021/06/05 04:50:20;;;;;;;1.35;1.23;;;22.90;52.30;;;;;;5036527;28;20120;-52
2021/06/05 04:52:47;;;;;;;1.40;1.30;;;22.90;52.20;;;;;;5053020;28;20084;-53
2021/06/05 04:55:15;;;;;;;1.30;1.20;;;23.00;52.10;;;;;;5053255;28;20412;-50
2021/06/05 04:57:51;;;;;;;;;;;23.00;52.10;;;;;;5054436;28;20049;-53
2021/06/05 05:00:27;;;;;;;1.38;1.27;;;23.00;51.90;;;;;;5038739;28;20324;-52
2021/06/05 05:02:55;;;;;;;1.40;1.10;;;23.10;52.00;;;;;;5037680;28;20053;-51
2021/06/05 05:05:23;;;;;;;1.27;1.17;;;23.10;51.80;;;;;;5052301;28;20049;-52
2021/06/05 05:07:51;;;;;;;1.70;1.30;;;23.10;51.80;;;;;;5037513;28;20398;-51
2021/06/05 05:10:23;;;;;;;1.48;1.38;;;23.20;51.80;;;;;;5038857;28;20049;-51
2021/06/05 05:12:50;;;;;;;1.10;1.00;;;23.20;51.80;;;;;;5038764;28;20107;-48
2021/06/05 05:15:20;;;;;;;1.13;1.05;;;23.30;51.70;;;;;;5052798;28;20444;-49
2021/06/05 05:17:48;;;;;;;1.70;1.33;;;23.30;51.50;;;;;;5038277;28;20091;-50
2021/06/05 05:20:18;;;;;;;1.40;1.17;;;23.30;51.50;;;;;;5038649;28;20053;-49
2021/06/05 05:22:45;;;;;;;1.45;1.35;;;23.30;51.50;;;;;;5048525;28;20520;-47
2021/06/05 05:25:13;;;;;;;1.63;1.45;;;23.30;51.50;;;;;;5054654;28;20049;-51
2021/06/05 05:27:41;;;;;;;1.25;1.15;;;23.30;51.50;;;;;;5053386;28;20037;-48
2021/06/05 05:30:13;;;;;;;1.40;1.30;;;23.30;51.50;;;;;;5054414;28;20041;-49
2021/06/05 05:32:41;;;;;;;1.52;1.20;;;23.30;51.50;;;;;;5053483;28;20040;-49
2021/06/05 05:35:09;;;;;;;1.30;1.20;;;23.30;51.40;;;;;;5053226;28;20053;-50
2021/06/05 05:37:37;;;;;;;1.75;1.17;;;23.30;51.40;;;;;;5053212;28;20489;-48
2021/06/05 05:40:06;;;;;;;1.38;1.27;;;23.30;51.30;;;;;;5049345;28;20041;-52
2021/06/05 05:42:33;;;;;;;1.27;1.17;;;23.30;51.30;;;;;;5040990;28;20053;-51
2021/06/05 05:45:01;;;;;;;1.70;1.33;;;23.30;51.30;;;;;;5051681;28;20037;-48
2021/06/05 05:47:28;;;;;;;1.30;1.13;;;23.30;51.30;;;;;;5049422;28;20095;-48
2021/06/05 05:49:55;;;;;;;1.30;1.20;;;23.30;51.30;;;;;;5036816;28;20090;-49
2021/06/05 05:52:24;;;;;;;1.77;1.30;;;23.40;51.30;;;;;;5052617;28;20083;-52
2021/06/05 05:54:52;;;;;;;1.52;1.30;;;23.40;51.30;;;;;;5051585;28;20052;-55
2021/06/05 05:57:19;;;;;;;1.92;1.20;;;23.40;51.30;;;;;;5035502;28;20049;-55
2021/06/05 05:59:46;;;;;;;1.58;1.10;;;23.40;51.30;;;;;;5053660;28;20098;-52
2021/06/05 06:02:13;;;;;;;1.90;1.45;;;23.40;51.30;;;;;;5052988;28;20468;-50
2021/06/05 06:04:41;;;;;;;1.23;1.02;;;23.40;51.20;;;;;;5035938;28;20073;-50
2021/06/05 06:07:08;;;;;;;1.52;1.20;;;23.40;51.20;;;;;;5037490;28;20458;-47
2021/06/05 06:09:35;;;;;;;1.33;1.15;;;23.50;51.20;;;;;;5038544;28;20103;-48
2021/06/05 06:12:02;;;;;;;1.42;1.10;;;23.50;51.20;;;;;;5050660;28;20551;-51
2021/06/05 06:14:30;;;;;;;1.65;1.45;;;23.50;51.10;;;;;;5039266;28;20068;-50
2021/06/05 06:16:57;;;;;;;2.20;1.30;;;23.50;51.10;;;;;;5050024;28;20072;-49
2021/06/05 06:19:24;;;;;;;1.55;1.30;;;23.60;51.10;;;;;;5042124;28;20111;-51
2021/06/05 06:21:52;;;;;;;1.95;1.00;;;23.60;51.00;;;;;;5048012;28;20041;-52
2021/06/05 06:24:20;;;;;;;1.20;1.10;;;23.60;50.90;;;;;;5051144;28;20072;-50
2021/06/05 06:26:47;;;;;;;1.23;1.10;;;23.60;50.90;;;;;;5043609;28;20057;-49
2021/06/05 06:29:17;;;;;;;1.50;1.20;;;23.70;50.90;;;;;;5035854;28;20505;-48
2021/06/05 06:31:46;;;;;;;1.20;1.00;;;23.70;50.90;;;;;;5043097;28;20077;-54
2021/06/05 06:34:15;;;;;;;1.65;1.50;;;23.70;50.90;;;;;;5052375;28;20048;-52
2021/06/05 06:36:44;;;;;;;1.20;1.10;;;23.70;50.90;;;;;;5067219;28;20416;-53
2021/06/05 06:39:13;;;;;;;1.33;1.20;;;23.70;50.90;;;;;;5053384;28;20480;-52
2021/06/05 06:41:41;;;;;;;1.30;1.20;;;23.70;50.90;;;;;;5052311;28;20468;-50
2021/06/05 06:44:08;;;;;;;1.38;1.23;;;23.70;50.90;;;;;;5052033;28;20049;-51
2021/06/05 06:46:45;;;;;;;1.40;1.30;;;23.70;50.90;;;;;;5052377;28;20045;-48
2021/06/05 06:49:14;;;;;;;1.15;1.05;;;23.70;50.90;;;;;;5049029;28;20179;-47
2021/06/05 06:51:42;;;;;;;1.30;1.20;;;23.70;50.90;;;;;;5036743;28;20081;-51
2021/06/05 06:54:10;;;;;;;2.55;1.35;;;23.70;51.00;;;;;;5052071;28;20515;-49
2021/06/05 06:56:38;;;;;;;1.80;1.15;;;23.60;50.90;;;;;;5052181;28;20045;-51
2021/06/05 06:59:06;;;;;;;1.17;0.95;;;23.60;50.90;;;;;;5051839;28;20102;-49
2021/06/05 07:01:33;;;;;;;1.45;1.30;;;23.60;50.90;;;;;;5036711;28;20555;-51
2021/06/05 07:04:01;;;;;;;1.55;1.20;;;23.60;51.00;;;;;;5035464;28;20053;-53
2021/06/05 07:06:28;;;;;;;1.50;1.40;;;23.60;50.90;;;;;;5048076;28;20089;-54
2021/06/05 07:08:56;;;;;;;1.35;1.20;;;23.60;51.00;;;;;;5049657;28;20040;-49
2021/06/05 07:11:30;;;;;;;1.20;1.00;;;23.60;51.00;;;;;;5035199;28;20448;-50
2021/06/05 07:14:00;;;;;;;1.33;1.23;;;23.60;51.10;;;;;;5052484;28;20051;-48
2021/06/05 07:16:28;;;;;;;1.20;1.10;;;23.60;51.10;;;;;;5049650;28;20045;-51
2021/06/05 07:18:56;;;;;;;1.35;1.15;;;23.50;51.00;;;;;;5051954;28;20394;-48
2021/06/05 07:21:24;;;;;;;2.15;1.50;;;23.50;51.00;;;;;;5052052;28;20079;-50
2021/06/05 07:23:51;;;;;;;1.20;1.10;;;23.50;51.00;;;;;;5049849;28;20053;-50
2021/06/05 07:26:22;;;;;;;1.40;1.30;;;23.50;51.00;;;;;;5052993;28;20049;-49
2021/06/05 07:28:58;;;;;;;1.58;1.48;;;23.50;51.00;;;;;;5050389;28;20492;-48
2021/06/05 07:31:50;;;;;;;1.48;1.20;;;23.50;51.00;;;;;;5050821;28;20048;-51
2021/06/05 07:34:23;;;;;;;1.48;1.10;;;23.60;51.10;;;;;;5051984;28;20045;-50
2021/06/05 07:37:03;;;;;;;1.40;1.30;;;23.50;51.00;;;;;;5037312;28;20057;-52
2021/06/05 07:39:32;;;;;;;1.27;1.10;;;23.50;51.10;;;;;;5039183;28;20103;-50
2021/06/05 07:41:59;;;;;;;2.05;1.30;;;23.50;51.00;;;;;;5054644;28;20060;-49
2021/06/05 07:44:29;;;;;;;1.58;1.48;;;23.50;51.10;;;;;;5040697;28;20088;-51
2021/06/05 07:46:59;;;;;;;1.50;1.30;;;23.50;51.10;;;;;;5039201;28;20045;-48
2021/06/05 07:49:29;;;;;;;1.27;1.17;;;23.60;51.10;;;;;;5052129;28;20512;-50
2021/06/05 07:51:58;;;;;;;1.08;0.90;;;23.50;51.00;;;;;;5042243;28;20485;-48
2021/06/05 07:54:25;;;;;;;1.20;1.10;;;23.60;51.10;;;;;;5052310;28;20440;-53
2021/06/05 07:56:53;;;;;;;1.38;1.27;;;23.60;51.10;;;;;;5044181;28;20123;-51
2021/06/05 07:59:24;;;;;;;1.13;1.02;;;23.60;51.10;;;;;;5049412;28;20045;-51
2021/06/05 08:01:52;;;;;;;1.13;1.00;;;23.50;51.00;;;;;;5054960;28;20051;-49
2021/06/05 08:04:20;;;;;;;1.38;1.20;;;23.60;51.10;;;;;;5053823;28;20052;-48
2021/06/05 08:06:49;;;;;;;1.42;1.30;;;23.60;51.00;;;;;;5053931;28;20060;-51
2021/06/05 08:09:17;;;;;;;1.23;1.08;;;23.60;51.00;;;;;;5055676;28;20079;-53
2021/06/05 08:11:44;;;;;;;1.88;1.27;;;23.60;51.00;;;;;;5056228;28;20041;-54
2021/06/05 08:14:11;;;;;;;1.30;1.10;;;23.60;51.00;;;;;;5054672;28;20401;-51
2021/06/05 08:16:39;;;;;;;1.70;1.40;;;23.60;51.00;;;;;;5054916;28;20044;-53
2021/06/05 08:19:10;;;;;;;1.58;1.38;;;23.60;51.00;;;;;;5054767;28;20041;-53
2021/06/05 08:21:46;;;;;;;1.15;1.00;;;23.60;51.00;;;;;;5056473;28;20045;-51
2021/06/05 08:24:17;;;;;;;1.20;1.00;;;23.60;50.90;;;;;;5054653;28;20102;-53
2021/06/05 08:26:46;;;;;;;1.20;1.10;;;23.60;50.90;;;;;;5053537;28;20095;-48
2021/06/05 08:29:13;;;;;;;1.30;1.20;;;23.70;50.90;;;;;;5051458;28;20048;-51
2021/06/05 08:31:40;;;;;;;1.33;1.10;;;23.70;50.90;;;;;;5038824;28;20046;-49
2021/06/05 08:34:10;;;;;;;1.40;1.30;;;23.70;50.90;;;;;;5053312;28;20072;-49
2021/06/05 08:36:37;;;;;;;1.30;1.20;;;23.70;50.90;;;;;;5038128;28;20057;-51
2021/06/05 08:39:06;;;;;;;1.40;1.17;;;23.70;50.90;;;;;;5054559;28;20056;-52
2021/06/05 08:41:39;;;;;;;1.30;1.10;;;23.70;50.80;;;;;;5036711;28;20053;-49
2021/06/05 08:44:25;;;;;;;1.17;1.08;;;23.70;50.90;;;;;;5035202;28;20053;-50
2021/06/05 08:46:59;;;;;;;1.58;1.20;;;23.70;50.80;;;;;;5038223;28;20045;-48
2021/06/05 08:49:31;;;;;;;1.40;1.10;;;23.70;50.80;;;;;;5053631;28;20041;-54
2021/06/05 08:52:05;;;;;;;1.27;1.17;;;23.70;50.80;;;;;;5038031;28;20045;-50
2021/06/05 08:54:56;;;;;;;1.33;1.20;;;23.70;50.90;;;;;;5037741;28;20041;-55
2021/06/05 08:57:43;;;;;;;1.10;1.00;;;23.70;50.80;;;;;;5039049;28;20052;-52
2021/06/05 09:00:15;;;;;;;2.00;1.13;;;23.70;50.80;;;;;;5042585;28;20122;-52
2021/06/05 09:02:45;;;;;;;1.50;1.15;;;23.70;50.80;;;;;;5051408;28;20053;-49
2021/06/05 09:05:19;;;;;;;1.30;1.20;;;23.70;50.70;;;;;;5060588;28;20048;-52
2021/06/05 09:07:47;;;;;;;1.80;1.35;;;23.80;50.80;;;;;;5053875;28;20101;-52
2021/06/05 09:10:18;;;;;;;1.25;1.15;;;23.80;50.70;;;;;;5052638;28;20037;-49
2021/06/05 09:12:45;;;;;;;1.40;1.30;;;23.80;50.70;;;;;;5038515;28;20072;-52
2021/06/05 09:15:26;;;;;;;1.15;1.05;;;23.80;50.70;;;;;;5054093;28;20119;-51
2021/06/05 09:17:59;;;;;;;2.45;1.33;;;23.80;50.70;;;;;;5051665;28;20095;-54
2021/06/05 09:20:38;;;;;;;1.45;1.33;;;23.90;50.70;;;;;;5039374;28;20040;-52
2021/06/05 09:23:31;;;;;;;1.58;1.33;;;23.90;50.70;;;;;;5054898;28;20095;-53
2021/06/05 09:26:28;;;;;;;1.23;1.05;;;23.90;50.70;;;;;;5052707;28;20428;-53
2021/06/05 09:29:08;;;;;;;1.20;1.00;;;23.90;50.70;;;;;;5045306;28;20064;-52
2021/06/05 09:31:54;;;;;;;1.40;1.10;;;23.90;50.70;;;;;;5046489;28;20108;-50
2021/06/05 09:34:25;;;;;;;1.25;1.10;;;23.90;50.60;;;;;;5042859;28;20050;-52
2021/06/05 09:36:52;;;;;;;1.20;1.10;;;23.90;50.70;;;;;;5036960;28;20549;-52
2021/06/05 09:39:38;;;;;;;1.80;1.27;;;23.90;50.60;;;;;;5046197;28;20048;-51
2021/06/05 09:42:10;;;;;;;1.23;1.13;;;23.90;50.60;;;;;;5053178;28;20048;-51
2021/06/05 09:44:47;;;;;;;1.20;1.10;;;23.90;50.60;;;;;;5057696;28;20045;-51
2021/06/05 09:47:17;;;;;;;1.20;1.10;;;23.90;50.60;;;;;;5048841;28;20539;-54
2021/06/05 09:49:49;;;;;;;1.80;1.33;;;23.90;50.70;;;;;;5043017;28;20111;-51
2021/06/05 09:52:33;;;;;;;2.25;1.35;;;23.90;50.70;;;;;;5047880;28;20489;-51
2021/06/05 09:55:26;;;;;;;1.33;1.20;;;23.90;50.70;;;;;;5054036;28;20076;-51
2021/06/05 09:57:55;;;;;;;1.52;1.20;;;23.90;50.70;;;;;;5052721;28;20290;-49
2021/06/05 10:00:32;;;;;;;1.40;1.30;;;23.90;50.70;;;;;;5065878;28;20147;-52
2021/06/05 10:03:25;;;;;;;1.15;1.05;;;23.90;50.80;;;;;;5053887;28;20076;-52
2021/06/05 10:05:54;;;;;;;1.80;1.17;;;23.90;50.80;;;;;;5066886;28;20049;-51
2021/06/05 10:08:33;;;;;;;1.60;1.30;;;23.90;50.80;;;;;;5051786;28;20088;-50
2021/06/05 10:11:19;;;;;;;1.20;1.10;;;23.90;50.80;;;;;;5050901;28;20049;-50
2021/06/05 10:13:56;;;;;;;1.20;1.10;;;23.90;50.80;;;;;;5034544;28;20041;-48
2021/06/05 10:16:25;;;;;;;1.13;1.02;;;23.90;51.40;;;;;;5052960;28;20516;-50
2021/06/05 10:18:59;;;;;;;1.45;1.08;;;23.90;50.90;;;;;;5034212;28;20057;-53
2021/06/05 10:21:31;;;;;;;1.53;1.20;;;23.90;50.90;;;;;;5034416;28;20394;-49
2021/06/05 10:24:20;;;;;;;1.27;1.17;;;23.90;50.90;;;;;;5051606;28;20052;-54
2021/06/05 10:26:48;;;;;;;1.48;1.30;;;23.90;51.50;;;;;;5052490;28;20080;-51
2021/06/05 10:29:30;;;;;;;1.27;1.05;;;23.90;50.90;;;;;;5033911;28;20046;-50
2021/06/05 10:32:00;;;;;;;1.38;1.27;;;23.90;50.90;;;;;;5035247;28;20046;-48
2021/06/05 10:34:41;;;;;;;1.08;0.98;;;23.90;50.90;;;;;;5034759;28;20154;-51
2021/06/05 10:37:18;;;;;;;1.30;1.10;;;23.90;50.90;;;;;;5035252;28;20053;-52
2021/06/05 10:39:46;;;;;;;1.23;0.90;;;23.90;51.00;;;;;;5035741;28;20055;-48
2021/06/05 10:42:37;;;;;;;1.10;1.00;;;23.90;51.00;;;;;;5035196;28;20100;-52
2021/06/05 10:45:09;;;;;;;1.17;0.93;;;23.90;51.10;;;;;;5037014;28;20090;-51
2021/06/05 10:47:58;;;;;;;1.38;1.00;;;23.90;51.10;;;;;;5038060;28;20105;-49
2021/06/05 10:50:44;;;;;;;1.52;1.23;;;23.90;51.10;;;;;;5053132;28;20044;-49
2021/06/05 10:53:37;;;;;;;1.58;1.30;;;23.90;51.10;;;;;;5052144;28;20049;-50
2021/06/05 10:56:20;;;;;;;1.50;1.30;;;23.90;51.10;;;;;;5053158;28;20052;-49
2021/06/05 10:58:52;;;;;;;1.50;1.20;;;23.90;51.20;;;;;;5051715;28;20045;-48
2021/06/05 11:01:31;;;;;;;1.33;1.20;;;23.90;51.20;;;;;;5052322;28;20053;-48
2021/06/05 11:04:33;;;;;;;1.20;1.10;;;23.90;51.20;;;;;;5052992;28;20103;-51
2021/06/05 11:07:04;;;;;;;1.20;1.10;;;23.90;51.30;;;;;;5052247;28;20049;-49
2021/06/05 11:09:31;;;;;;;1.85;1.20;;;23.90;51.30;;;;;;5052177;28;20049;-51
2021/06/05 11:12:04;;;;;;;1.02;1.00;;;23.90;51.30;;;;;;5054900;28;20461;-48
2021/06/05 11:14:37;;;;;;;1.30;1.10;;;23.80;51.20;;;;;;5056140;28;20041;-49
2021/06/05 11:17:26;;;;;;;1.27;1.10;;;23.90;51.30;;;;;;5055953;28;20083;-50
2021/06/05 11:20:06;;;;;;;1.38;1.20;;;23.90;51.30;;;;;;5056849;28;20555;-50
2021/06/05 11:22:54;;;;;;;1.55;1.00;;;23.90;51.30;;;;;;5055957;28;20114;-48
2021/06/05 11:25:33;;;;;;;1.30;1.08;;;23.90;51.30;;;;;;5048612;28;20397;-53
2021/06/05 11:28:25;;;;;;;1.33;1.05;;;23.90;51.30;;;;;;5039389;28;20123;-51
2021/06/05 11:30:52;;;;;;;1.60;1.30;;;23.90;51.30;;;;;;5037597;28;20072;-56
2021/06/05 11:33:45;;;;;;;1.20;1.00;;;23.90;51.30;;;;;;5056850;28;20045;-52
2021/06/05 11:36:33;;;;;;;1.67;1.20;;;23.90;51.30;;;;;;5039144;28;20053;-52
2021/06/05 11:39:00;;;;;;;1.40;1.23;;;23.90;51.30;;;;;;5040562;28;20447;-52
2021/06/05 11:41:48;;;;;;;1.73;1.13;;;23.90;51.30;;;;;;5039392;28;20056;-53
2021/06/05 11:44:25;;;;;;;1.63;1.10;;;23.90;51.30;;;;;;5054337;28;20068;-56
2021/06/05 11:47:02;;;;;;;1.27;1.17;;;23.90;51.30;;;;;;5040364;28;20107;-51
2021/06/05 11:49:45;;;;;;;1.35;1.08;;;23.90;51.30;;;;;;5042505;28;20045;-53
2021/06/05 11:52:31;;;;;;;1.23;1.13;;;23.90;51.30;;;;;;5055304;28;20118;-53
2021/06/05 11:55:35;;;;;;;1.35;1.25;;;23.90;51.40;;;;;;5049336;28;20050;-51
2021/06/05 11:58:17;;;;;;;1.52;1.20;;;23.90;51.40;;;;;;5050234;28;20072;-52
2021/06/05 12:00:48;;;;;;;1.58;1.20;;;23.90;51.40;;;;;;5053153;28;20451;-53
2021/06/05 12:03:28;;;;;;;1.70;1.30;;;23.90;51.40;;;;;;5055176;28;20060;-53
2021/06/05 12:06:14;;;;;;;1.38;1.13;;;23.90;51.40;;;;;;5053161;28;20049;-49
2021/06/05 12:08:43;;;;;;;1.50;1.17;;;23.90;51.40;;;;;;5054091;28;20049;-55
2021/06/05 12:11:32;;;;;;;1.27;1.17;;;23.90;51.30;;;;;;5040995;28;20061;-53
2021/06/05 12:14:37;;;;;;;1.40;0.90;;;23.90;52.00;;;;;;5038472;28;20124;-50
2021/06/05 12:17:22;;;;;;;1.42;1.25;;;23.90;51.40;;;;;;5036828;28;20120;-53
2021/06/05 12:19:49;;;;;;;1.20;1.10;;;23.90;51.40;;;;;;5053898;28;20126;-53
2021/06/05 12:22:29;;;;;;;1.60;1.50;;;23.90;51.40;;;;;;5037270;28;20564;-53
2021/06/05 12:24:57;;;;;;;1.58;1.10;;;23.90;51.40;;;;;;5036551;28;20053;-48
2021/06/05 12:27:33;;;;;;;1.58;1.20;;;23.90;52.00;;;;;;5036146;28;20421;-53
2021/06/05 12:30:15;;;;;;;1.42;1.30;;;23.90;51.40;;;;;;5052627;28;20136;-51
2021/06/05 12:33:04;;;;;;;1.40;1.30;;;23.90;51.40;;;;;;5038272;28;20080;-51
2021/06/05 12:35:44;;;;;;;1.50;1.40;;;23.90;51.40;;;;;;5041521;28;20119;-51
2021/06/05 12:38:27;;;;;;;1.30;1.00;;;23.90;51.30;;;;;;5053568;28;20147;-53
2021/06/05 12:41:03;;;;;;;0.88;0.80;;;23.90;51.40;;;;;;5050680;28;20050;-50
2021/06/05 12:43:34;;;;;;;1.70;1.40;;;24.00;51.40;;;;;;5043504;28;20041;-51
2021/06/05 12:46:10;;;;;;;1.20;1.10;;;24.00;51.40;;;;;;5055292;28;20041;-48
2021/06/05 12:48:38;;;;;;;1.10;1.00;;;24.00;51.30;;;;;;5053338;28;20520;-53
2021/06/05 12:51:08;;;;;;;1.70;1.23;;;24.00;51.30;;;;;;5052938;28;20091;-53
2021/06/05 12:53:36;;;;;;;1.50;1.23;;;23.90;51.30;;;;;;5050107;28;20053;-51
2021/06/05 12:56:25;;;;;;;1.42;1.02;;;24.00;51.30;;;;;;5038705;28;20045;-53
2021/06/05 12:59:01;;;;;;;2.10;1.13;;;24.00;51.30;;;;;;5053910;28;20037;-53
2021/06/05 13:01:45;;;;;;;1.38;1.20;;;24.00;51.30;;;;;;5050038;28;20041;-53
2021/06/05 13:04:29;;;;;;;1.20;1.10;;;24.00;51.30;;;;;;5042645;28;20068;-54
2021/06/05 13:07:07;;;;;;;;;;;24.00;51.30;;;;;;5052322;28;20399;-52
2021/06/05 13:09:38;;;;;;;1.17;1.05;;;24.00;51.30;;;;;;5054172;28;19921;-50
2021/06/05 13:12:27;;;;;;;1.88;1.58;;;24.00;51.30;;;;;;5047726;28;20092;-51
2021/06/05 13:15:09;;;;;;;1.25;1.13;;;24.00;51.20;;;;;;5046526;28;20049;-51
2021/06/05 13:17:39;;;;;;;1.30;1.20;;;24.10;51.30;;;;;;5053474;28;20052;-49